createdAt,value
2023-02-14T06:50:06.236Z,21.20
2023-02-14T06:53:08.197Z,23.98
2023-02-14T06:56:10.049Z,22.80
2023-02-14T06:59:11.894Z,23.85
2023-02-14T07:02:13.978Z,24.33
2023-02-14T07:05:19.278Z,24.50
2023-02-14T07:08:21.912Z,24.23
2023-02-14T07:11:24.777Z,23.02
2023-02-14T07:14:27.489Z,23.45
2023-02-14T07:17:29.804Z,23.55
2023-02-14T07:20:35.023Z,22.58
2023-02-14T07:23:38.608Z,21.65
2023-02-14T07:26:45.852Z,24.15
2023-02-14T07:29:48.874Z,21.90
2023-02-14T07:32:51.402Z,19.77
2023-02-14T07:35:53.819Z,19.35
2023-02-14T07:38:57.033Z,17.08
2023-02-14T07:41:59.647Z,16.25
2023-02-14T07:45:12.539Z,15.88
2023-02-14T07:48:23.156Z,14.68
2023-02-14T07:51:24.946Z,14.77
2023-02-14T07:54:27.171Z,13.63
2023-02-14T07:57:28.982Z,13.48
2023-02-14T08:00:30.792Z,14.20
2023-02-14T08:03:32.695Z,14.27
2023-02-14T08:06:34.700Z,14.98
2023-02-14T08:09:36.827Z,14.85
2023-02-14T08:12:57.720Z,14.20
2023-02-14T08:16:05.749Z,15.38
2023-02-14T08:19:09.109Z,15.23
2023-02-14T08:22:11.436Z,16.00
2023-02-14T08:25:13.548Z,14.57
2023-02-14T08:28:15.883Z,15.27
2023-02-14T08:31:36.256Z,15.98
2023-02-14T08:34:38.579Z,16.48
2023-02-14T08:37:40.548Z,17.08
2023-02-14T08:40:43.414Z,17.70
2023-02-14T08:43:45.653Z,18.58
2023-02-14T08:46:47.587Z,17.70
2023-02-14T08:49:50.349Z,18.00
2023-02-14T08:52:54.984Z,18.27
2023-02-14T08:56:04.775Z,16.63
2023-02-14T08:59:14.693Z,19.30
2023-02-14T09:02:22.929Z,18.45
2023-02-14T09:05:33.156Z,19.23
2023-02-14T09:08:57.589Z,19.48
2023-02-14T09:12:12.158Z,19.45
2023-02-14T09:15:19.901Z,18.45
2023-02-14T09:18:27.290Z,20.27
2023-02-14T09:21:40.527Z,21.27
2023-02-14T09:24:49.310Z,19.67
2023-02-14T09:27:57.615Z,19.95
2023-02-14T09:31:13.254Z,20.27
2023-02-14T09:38:00.447Z,20.20
2023-02-14T09:41:09.966Z,20.88
2023-02-14T09:44:37.582Z,19.35
2023-02-14T09:48:12.531Z,20.80
2023-02-14T09:51:22.636Z,19.02
2023-02-14T09:54:29.590Z,21.15
2023-02-14T09:57:41.403Z,20.33
2023-02-14T10:00:50.303Z,20.77
2023-02-14T10:04:10.371Z,19.90
2023-02-14T10:07:22.320Z,21.10
2023-02-14T10:10:34.366Z,19.30
2023-02-14T10:14:24.723Z,20.77
2023-02-14T10:17:50.159Z,20.25
2023-02-14T10:21:05.801Z,20.77
2023-02-14T10:24:23.516Z,18.85
2023-02-14T10:27:41.408Z,18.02
2023-02-14T10:30:54.921Z,18.73
2023-02-14T10:34:15.019Z,18.23
2023-02-14T10:37:50.725Z,16.88
2023-02-14T10:41:17.163Z,16.35
2023-02-14T10:44:28.622Z,15.88
2023-02-14T10:47:48.014Z,15.38
2023-02-14T10:50:59.234Z,17.50
2023-02-14T10:54:23.376Z,15.48
2023-02-14T10:57:46.292Z,15.63
2023-02-14T11:01:14.883Z,14.55
2023-02-14T11:04:20.082Z,15.27
2023-02-14T11:10:37.035Z,12.77
2023-02-14T11:13:41.514Z,12.23
2023-02-14T11:16:43.822Z,13.98
2023-02-14T11:20:02.762Z,14.80
2023-02-14T11:23:19.228Z,13.93
2023-02-14T11:26:30.557Z,13.88
2023-02-14T11:29:42.027Z,18.70
2023-02-14T11:32:57.388Z,17.65
2023-02-14T11:36:00.976Z,21.38
2023-02-14T11:39:26.103Z,22.92
2023-02-14T11:42:37.074Z,22.00
2023-02-14T11:45:41.432Z,20.65
2023-02-14T11:49:06.319Z,23.23
2023-02-14T11:52:10.600Z,24.15
2023-02-14T11:55:32.334Z,21.33
2023-02-14T11:58:47.613Z,25.20
2023-02-14T12:01:49.636Z,23.58
2023-02-14T12:06:18.950Z,24.10
2023-02-14T12:09:23.687Z,23.13
2023-02-14T12:12:26.559Z,21.10
2023-02-14T12:15:36.992Z,22.52
2023-02-14T12:19:02.061Z,23.00
2023-02-14T12:22:06.280Z,23.20
2023-02-14T12:25:16.483Z,22.90
2023-02-14T12:28:30.842Z,23.05
2023-02-14T12:31:32.799Z,21.50
2023-02-14T12:34:36.340Z,22.77
2023-02-14T12:38:07.279Z,23.75
2023-02-14T12:41:45.878Z,22.33
2023-02-14T12:45:09.553Z,24.40
2023-02-14T12:48:37.517Z,22.13
2023-02-14T12:52:10.356Z,21.63
2023-02-14T12:55:22.923Z,22.13
2023-02-14T12:59:00.789Z,24.20
2023-02-14T13:02:05.951Z,20.75
2023-02-14T13:08:54.633Z,20.88
2023-02-14T13:12:21.375Z,21.25
2023-02-14T13:15:53.062Z,21.80
2023-02-14T13:19:16.350Z,20.65
2023-02-14T13:22:21.952Z,21.25
2023-02-14T13:25:31.805Z,21.40
2023-02-14T13:28:36.028Z,21.67
2023-02-14T13:31:39.462Z,19.67
2023-02-14T13:34:48.986Z,20.58
2023-02-14T13:37:57.784Z,20.55
2023-02-14T13:41:02.792Z,21.67
2023-02-14T13:47:08.610Z,23.08
2023-02-14T13:50:21.299Z,22.08
2023-02-14T13:53:31.908Z,20.33
2023-02-14T13:56:35.649Z,22.60
2023-02-14T13:59:37.609Z,21.25
2023-02-14T14:02:46.501Z,21.92
2023-02-14T14:06:02.174Z,20.60
2023-02-14T14:09:04.289Z,22.10
2023-02-14T14:12:28.787Z,23.00
2023-02-14T14:15:30.595Z,22.70
2023-02-14T14:18:38.594Z,23.30
2023-02-14T14:33:29.127Z,22.27
2023-02-14T14:38:07.241Z,23.15
2023-02-14T14:42:46.232Z,23.98
2023-02-14T14:47:25.149Z,22.85
2023-02-14T15:27:47.192Z,26.10
2023-02-14T15:30:59.666Z,24.92
2023-02-14T15:34:07.609Z,25.77
2023-02-14T15:41:33.773Z,25.60
2023-02-14T15:46:03.262Z,24.52
2023-02-14T15:49:15.512Z,25.27
2023-02-14T15:53:54.293Z,24.40
2023-02-14T15:56:56.723Z,26.08
2023-02-14T16:01:34.365Z,28.10
2023-02-14T16:04:36.205Z,26.05
2023-02-14T16:07:37.889Z,26.70
2023-02-14T16:10:40.070Z,26.73
2023-02-14T16:13:47.718Z,25.63
2023-02-14T16:17:04.614Z,26.67
2023-02-14T16:20:36.961Z,26.85
2023-02-14T16:23:39.163Z,27.50
2023-02-14T16:26:43.449Z,26.13
2023-02-14T16:29:45.546Z,28.17
2023-02-14T16:32:52.539Z,29.33
2023-02-14T16:35:55.025Z,26.25
2023-02-14T16:38:57.712Z,28.90
2023-02-14T16:41:59.414Z,28.05
2023-02-14T16:45:01.082Z,27.48
2023-02-14T16:48:03.099Z,26.83
2023-02-14T16:51:05.011Z,28.00
2023-02-14T16:54:11.508Z,28.38
2023-02-14T16:57:20.334Z,30.13
